sensor_id;sensor_type;location;lat;lon;timestamp;P1;durP1;ratioP1;P2;durP2;ratioP2
44810;SDS011;30526;52.184;4.476;2023-12-20T00:01:54;20.00;;;11.32;;
44810;SDS011;30526;52.184;4.476;2023-12-20T00:04:20;28.23;;;12.27;;
44810;SDS011;30526;52.184;4.476;2023-12-20T00:06:46;13.50;;;11.70;;
44810;SDS011;30526;52.184;4.476;2023-12-20T00:09:12;29.75;;;11.93;;
44810;SDS011;30526;52.184;4.476;2023-12-20T00:11:38;18.25;;;11.98;;
44810;SDS011;30526;52.184;4.476;2023-12-20T00:14:07;22.92;;;12.25;;
44810;SDS011;30526;52.184;4.476;2023-12-20T00:16:33;21.25;;;11.90;;
44810;SDS011;30526;52.184;4.476;2023-12-20T00:18:59;25.65;;;12.73;;
44810;SDS011;30526;52.184;4.476;2023-12-20T00:21:25;33.83;;;12.75;;
44810;SDS011;30526;52.184;4.476;2023-12-20T00:23:51;21.80;;;11.40;;
44810;SDS011;30526;52.184;4.476;2023-12-20T00:26:17;21.17;;;12.27;;
44810;SDS011;30526;52.184;4.476;2023-12-20T00:28:43;27.35;;;11.95;;
44810;SDS011;30526;52.184;4.476;2023-12-20T00:31:09;18.13;;;11.65;;
44810;SDS011;30526;52.184;4.476;2023-12-20T00:33:35;21.20;;;12.15;;
44810;SDS011;30526;52.184;4.476;2023-12-20T00:36:01;23.83;;;12.63;;
44810;SDS011;30526;52.184;4.476;2023-12-20T00:38:27;20.02;;;11.55;;
44810;SDS011;30526;52.184;4.476;2023-12-20T00:40:53;24.83;;;12.35;;
44810;SDS011;30526;52.184;4.476;2023-12-20T00:43:19;19.75;;;11.80;;
44810;SDS011;30526;52.184;4.476;2023-12-20T00:45:45;20.02;;;12.07;;
44810;SDS011;30526;52.184;4.476;2023-12-20T00:48:11;22.25;;;11.63;;
44810;SDS011;30526;52.184;4.476;2023-12-20T00:50:38;16.05;;;11.25;;
44810;SDS011;30526;52.184;4.476;2023-12-20T00:53:04;18.98;;;11.70;;
44810;SDS011;30526;52.184;4.476;2023-12-20T00:55:30;16.10;;;11.18;;
44810;SDS011;30526;52.184;4.476;2023-12-20T00:57:56;20.08;;;12.18;;
44810;SDS011;30526;52.184;4.476;2023-12-20T01:00:24;24.80;;;11.98;;
44810;SDS011;30526;52.184;4.476;2023-12-20T01:02:50;19.77;;;11.45;;
44810;SDS011;30526;52.184;4.476;2023-12-20T01:05:17;19.17;;;12.20;;
44810;SDS011;30526;52.184;4.476;2023-12-20T01:07:43;20.65;;;12.00;;
44810;SDS011;30526;52.184;4.476;2023-12-20T01:10:09;25.75;;;12.00;;
44810;SDS011;30526;52.184;4.476;2023-12-20T01:12:35;22.63;;;11.95;;
44810;SDS011;30526;52.184;4.476;2023-12-20T01:15:02;24.80;;;11.15;;
44810;SDS011;30526;52.184;4.476;2023-12-20T01:17:28;23.90;;;11.73;;
44810;SDS011;30526;52.184;4.476;2023-12-20T01:19:54;19.25;;;11.57;;
44810;SDS011;30526;52.184;4.476;2023-12-20T01:22:20;21.17;;;11.63;;
44810;SDS011;30526;52.184;4.476;2023-12-20T01:24:46;20.95;;;11.05;;
44810;SDS011;30526;52.184;4.476;2023-12-20T01:27:12;24.52;;;11.95;;
44810;SDS011;30526;52.184;4.476;2023-12-20T01:29:38;23.98;;;11.90;;
44810;SDS011;30526;52.184;4.476;2023-12-20T01:32:04;23.10;;;11.02;;
44810;SDS011;30526;52.184;4.476;2023-12-20T01:34:30;27.08;;;11.27;;
44810;SDS011;30526;52.184;4.476;2023-12-20T01:36:56;24.70;;;11.93;;
44810;SDS011;30526;52.184;4.476;2023-12-20T01:39:22;24.13;;;11.20;;
44810;SDS011;30526;52.184;4.476;2023-12-20T01:41:48;26.15;;;10.63;;
44810;SDS011;30526;52.184;4.476;2023-12-20T01:44:14;24.80;;;10.65;;
44810;SDS011;30526;52.184;4.476;2023-12-20T01:46:40;27.13;;;11.32;;
44810;SDS011;30526;52.184;4.476;2023-12-20T01:49:06;25.27;;;10.18;;
44810;SDS011;30526;52.184;4.476;2023-12-20T01:51:33;29.80;;;11.13;;
44810;SDS011;30526;52.184;4.476;2023-12-20T01:53:59;20.10;;;10.35;;
44810;SDS011;30526;52.184;4.476;2023-12-20T01:56:26;24.38;;;10.52;;
44810;SDS011;30526;52.184;4.476;2023-12-20T01:58:52;19.77;;;10.93;;
44810;SDS011;30526;52.184;4.476;2023-12-20T02:01:19;17.55;;;10.30;;
44810;SDS011;30526;52.184;4.476;2023-12-20T02:03:45;24.63;;;9.77;;
44810;SDS011;30526;52.184;4.476;2023-12-20T02:06:11;18.97;;;9.83;;
44810;SDS011;30526;52.184;4.476;2023-12-20T02:08:37;26.83;;;9.70;;
44810;SDS011;30526;52.184;4.476;2023-12-20T02:11:03;21.48;;;10.50;;
44810;SDS011;30526;52.184;4.476;2023-12-20T02:13:30;25.88;;;10.95;;
44810;SDS011;30526;52.184;4.476;2023-12-20T02:15:56;19.58;;;9.90;;
44810;SDS011;30526;52.184;4.476;2023-12-20T02:18:22;30.08;;;10.10;;
44810;SDS011;30526;52.184;4.476;2023-12-20T02:20:49;20.67;;;10.00;;
44810;SDS011;30526;52.184;4.476;2023-12-20T02:23:15;23.27;;;10.20;;
44810;SDS011;30526;52.184;4.476;2023-12-20T02:25:41;19.55;;;10.10;;
44810;SDS011;30526;52.184;4.476;2023-12-20T02:28:07;16.90;;;9.85;;
44810;SDS011;30526;52.184;4.476;2023-12-20T02:30:33;24.58;;;10.27;;
44810;SDS011;30526;52.184;4.476;2023-12-20T02:32:59;31.55;;;10.40;;
44810;SDS011;30526;52.184;4.476;2023-12-20T02:35:25;17.35;;;10.18;;
44810;SDS011;30526;52.184;4.476;2023-12-20T02:37:51;24.83;;;10.90;;
44810;SDS011;30526;52.184;4.476;2023-12-20T02:40:17;31.88;;;11.00;;
44810;SDS011;30526;52.184;4.476;2023-12-20T02:42:43;25.13;;;10.50;;
44810;SDS011;30526;52.184;4.476;2023-12-20T02:45:09;30.25;;;11.05;;
44810;SDS011;30526;52.184;4.476;2023-12-20T02:47:35;28.40;;;10.15;;
44810;SDS011;30526;52.184;4.476;2023-12-20T02:50:01;20.52;;;10.18;;
44810;SDS011;30526;52.184;4.476;2023-12-20T02:52:28;23.85;;;10.73;;
44810;SDS011;30526;52.184;4.476;2023-12-20T02:54:55;28.77;;;11.02;;
44810;SDS011;30526;52.184;4.476;2023-12-20T02:57:21;20.08;;;10.65;;
44810;SDS011;30526;52.184;4.476;2023-12-20T02:59:46;18.60;;;10.45;;
44810;SDS011;30526;52.184;4.476;2023-12-20T03:02:12;24.85;;;10.57;;
44810;SDS011;30526;52.184;4.476;2023-12-20T03:04:39;23.13;;;10.65;;
44810;SDS011;30526;52.184;4.476;2023-12-20T03:07:04;22.95;;;11.00;;
44810;SDS011;30526;52.184;4.476;2023-12-20T03:09:30;18.23;;;10.00;;
44810;SDS011;30526;52.184;4.476;2023-12-20T03:11:57;27.10;;;10.20;;
44810;SDS011;30526;52.184;4.476;2023-12-20T03:14:23;17.90;;;9.90;;
44810;SDS011;30526;52.184;4.476;2023-12-20T03:16:49;20.73;;;9.77;;
44810;SDS011;30526;52.184;4.476;2023-12-20T03:19:16;27.02;;;10.80;;
44810;SDS011;30526;52.184;4.476;2023-12-20T03:21:42;23.30;;;10.30;;
44810;SDS011;30526;52.184;4.476;2023-12-20T03:24:08;25.40;;;10.95;;
44810;SDS011;30526;52.184;4.476;2023-12-20T03:26:34;30.85;;;11.15;;
44810;SDS011;30526;52.184;4.476;2023-12-20T03:29:00;27.58;;;10.15;;
44810;SDS011;30526;52.184;4.476;2023-12-20T03:31:26;28.80;;;10.68;;
44810;SDS011;30526;52.184;4.476;2023-12-20T03:33:52;19.73;;;10.27;;
44810;SDS011;30526;52.184;4.476;2023-12-20T03:36:19;18.77;;;9.60;;
44810;SDS011;30526;52.184;4.476;2023-12-20T03:38:45;30.20;;;11.40;;
44810;SDS011;30526;52.184;4.476;2023-12-20T03:41:11;23.35;;;10.13;;
44810;SDS011;30526;52.184;4.476;2023-12-20T03:43:37;32.95;;;11.07;;
44810;SDS011;30526;52.184;4.476;2023-12-20T03:46:03;20.88;;;10.02;;
44810;SDS011;30526;52.184;4.476;2023-12-20T03:48:29;25.95;;;11.07;;
44810;SDS011;30526;52.184;4.476;2023-12-20T03:50:56;18.10;;;9.63;;
44810;SDS011;30526;52.184;4.476;2023-12-20T03:53:22;17.50;;;9.52;;
44810;SDS011;30526;52.184;4.476;2023-12-20T03:55:48;27.63;;;11.50;;
44810;SDS011;30526;52.184;4.476;2023-12-20T03:58:14;27.27;;;10.23;;
44810;SDS011;30526;52.184;4.476;2023-12-20T04:00:40;24.95;;;9.65;;
44810;SDS011;30526;52.184;4.476;2023-12-20T04:03:06;20.45;;;9.55;;
44810;SDS011;30526;52.184;4.476;2023-12-20T04:05:32;22.55;;;10.07;;
44810;SDS011;30526;52.184;4.476;2023-12-20T04:07:59;31.42;;;10.68;;
44810;SDS011;30526;52.184;4.476;2023-12-20T04:10:25;18.13;;;10.35;;
44810;SDS011;30526;52.184;4.476;2023-12-20T04:12:51;23.65;;;10.75;;
44810;SDS011;30526;52.184;4.476;2023-12-20T04:15:17;17.30;;;10.13;;
44810;SDS011;30526;52.184;4.476;2023-12-20T04:17:43;30.52;;;10.65;;
44810;SDS011;30526;52.184;4.476;2023-12-20T04:20:09;18.20;;;10.38;;
44810;SDS011;30526;52.184;4.476;2023-12-20T04:22:35;18.77;;;9.70;;
44810;SDS011;30526;52.184;4.476;2023-12-20T04:25:01;20.45;;;10.10;;
44810;SDS011;30526;52.184;4.476;2023-12-20T04:27:27;23.55;;;10.23;;
44810;SDS011;30526;52.184;4.476;2023-12-20T04:29:54;27.90;;;10.35;;
44810;SDS011;30526;52.184;4.476;2023-12-20T04:32:19;16.08;;;9.48;;
44810;SDS011;30526;52.184;4.476;2023-12-20T04:34:45;21.48;;;9.80;;
44810;SDS011;30526;52.184;4.476;2023-12-20T04:37:11;30.20;;;9.95;;
44810;SDS011;30526;52.184;4.476;2023-12-20T04:39:37;22.35;;;10.10;;
44810;SDS011;30526;52.184;4.476;2023-12-20T04:42:04;34.53;;;10.90;;
44810;SDS011;30526;52.184;4.476;2023-12-20T04:44:30;29.98;;;10.63;;
44810;SDS011;30526;52.184;4.476;2023-12-20T04:46:56;31.27;;;10.60;;
44810;SDS011;30526;52.184;4.476;2023-12-20T04:49:22;18.20;;;9.73;;
44810;SDS011;30526;52.184;4.476;2023-12-20T04:51:48;28.02;;;10.40;;
44810;SDS011;30526;52.184;4.476;2023-12-20T04:54:14;21.90;;;10.45;;
44810;SDS011;30526;52.184;4.476;2023-12-20T04:56:40;25.23;;;9.93;;
44810;SDS011;30526;52.184;4.476;2023-12-20T04:59:06;16.90;;;9.57;;
44810;SDS011;30526;52.184;4.476;2023-12-20T05:01:32;22.17;;;10.20;;
44810;SDS011;30526;52.184;4.476;2023-12-20T05:03:58;32.58;;;10.07;;
44810;SDS011;30526;52.184;4.476;2023-12-20T05:06:24;28.02;;;10.52;;
44810;SDS011;30526;52.184;4.476;2023-12-20T05:08:50;21.80;;;9.63;;
44810;SDS011;30526;52.184;4.476;2023-12-20T05:11:17;29.23;;;10.40;;
44810;SDS011;30526;52.184;4.476;2023-12-20T05:13:42;26.73;;;9.73;;
44810;SDS011;30526;52.184;4.476;2023-12-20T05:16:08;28.20;;;9.90;;
44810;SDS011;30526;52.184;4.476;2023-12-20T05:18:34;22.45;;;10.27;;
44810;SDS011;30526;52.184;4.476;2023-12-20T05:21:00;23.92;;;10.18;;
44810;SDS011;30526;52.184;4.476;2023-12-20T05:23:27;21.63;;;9.77;;
44810;SDS011;30526;52.184;4.476;2023-12-20T05:25:53;30.65;;;10.27;;
44810;SDS011;30526;52.184;4.476;2023-12-20T05:28:19;17.00;;;10.18;;
44810;SDS011;30526;52.184;4.476;2023-12-20T05:30:45;16.60;;;9.32;;
44810;SDS011;30526;52.184;4.476;2023-12-20T05:33:10;26.67;;;10.23;;
44810;SDS011;30526;52.184;4.476;2023-12-20T05:35:36;18.20;;;9.60;;
44810;SDS011;30526;52.184;4.476;2023-12-20T05:38:03;30.30;;;10.30;;
44810;SDS011;30526;52.184;4.476;2023-12-20T05:40:29;25.75;;;10.68;;
44810;SDS011;30526;52.184;4.476;2023-12-20T05:42:55;29.13;;;10.35;;
44810;SDS011;30526;52.184;4.476;2023-12-20T05:45:21;30.33;;;9.57;;
44810;SDS011;30526;52.184;4.476;2023-12-20T05:47:47;25.27;;;9.57;;
44810;SDS011;30526;52.184;4.476;2023-12-20T05:50:13;15.88;;;9.32;;
44810;SDS011;30526;52.184;4.476;2023-12-20T05:52:39;27.15;;;9.88;;
44810;SDS011;30526;52.184;4.476;2023-12-20T05:55:05;23.63;;;10.38;;
44810;SDS011;30526;52.184;4.476;2023-12-20T05:57:31;20.83;;;10.13;;
44810;SDS011;30526;52.184;4.476;2023-12-20T05:59:57;27.38;;;10.05;;
44810;SDS011;30526;52.184;4.476;2023-12-20T06:02:23;16.75;;;10.07;;
44810;SDS011;30526;52.184;4.476;2023-12-20T06:04:49;22.05;;;10.32;;
44810;SDS011;30526;52.184;4.476;2023-12-20T06:07:16;32.40;;;10.68;;
44810;SDS011;30526;52.184;4.476;2023-12-20T06:09:42;24.08;;;9.93;;
44810;SDS011;30526;52.184;4.476;2023-12-20T06:12:08;21.73;;;9.60;;
44810;SDS011;30526;52.184;4.476;2023-12-20T06:14:35;20.85;;;8.80;;
44810;SDS011;30526;52.184;4.476;2023-12-20T06:17:01;25.90;;;10.27;;
44810;SDS011;30526;52.184;4.476;2023-12-20T06:19:27;14.07;;;8.55;;
44810;SDS011;30526;52.184;4.476;2023-12-20T06:21:53;30.90;;;10.77;;
44810;SDS011;30526;52.184;4.476;2023-12-20T06:24:19;18.08;;;9.57;;
44810;SDS011;30526;52.184;4.476;2023-12-20T06:26:46;21.08;;;9.13;;
44810;SDS011;30526;52.184;4.476;2023-12-20T06:29:12;22.02;;;10.07;;
44810;SDS011;30526;52.184;4.476;2023-12-20T06:31:38;18.85;;;9.70;;
44810;SDS011;30526;52.184;4.476;2023-12-20T06:34:04;23.75;;;9.52;;
44810;SDS011;30526;52.184;4.476;2023-12-20T06:36:30;16.67;;;10.23;;
44810;SDS011;30526;52.184;4.476;2023-12-20T06:38:56;30.20;;;10.20;;
44810;SDS011;30526;52.184;4.476;2023-12-20T06:41:23;22.25;;;10.88;;
44810;SDS011;30526;52.184;4.476;2023-12-20T06:43:49;19.50;;;10.75;;
44810;SDS011;30526;52.184;4.476;2023-12-20T06:46:16;26.30;;;10.82;;
44810;SDS011;30526;52.184;4.476;2023-12-20T06:48:42;27.85;;;9.63;;
44810;SDS011;30526;52.184;4.476;2023-12-20T06:51:11;25.13;;;10.27;;
44810;SDS011;30526;52.184;4.476;2023-12-20T06:53:38;26.75;;;9.88;;
44810;SDS011;30526;52.184;4.476;2023-12-20T06:56:04;30.55;;;10.77;;
44810;SDS011;30526;52.184;4.476;2023-12-20T06:58:30;23.83;;;9.90;;
44810;SDS011;30526;52.184;4.476;2023-12-20T07:00:56;30.88;;;10.65;;
44810;SDS011;30526;52.184;4.476;2023-12-20T07:03:22;32.60;;;11.52;;
44810;SDS011;30526;52.184;4.476;2023-12-20T07:05:48;28.20;;;11.00;;
44810;SDS011;30526;52.184;4.476;2023-12-20T07:08:14;26.98;;;10.48;;
44810;SDS011;30526;52.184;4.476;2023-12-20T07:10:40;14.93;;;8.20;;
44810;SDS011;30526;52.184;4.476;2023-12-20T07:13:06;20.05;;;9.55;;
44810;SDS011;30526;52.184;4.476;2023-12-20T07:15:33;20.83;;;10.35;;
44810;SDS011;30526;52.184;4.476;2023-12-20T07:17:59;21.35;;;9.68;;
44810;SDS011;30526;52.184;4.476;2023-12-20T07:20:25;26.00;;;9.00;;
44810;SDS011;30526;52.184;4.476;2023-12-20T07:22:51;28.17;;;10.02;;
44810;SDS011;30526;52.184;4.476;2023-12-20T07:25:17;20.23;;;9.90;;
44810;SDS011;30526;52.184;4.476;2023-12-20T07:30:11;21.88;;;10.52;;
44810;SDS011;30526;52.184;4.476;2023-12-20T07:32:37;25.23;;;9.75;;
44810;SDS011;30526;52.184;4.476;2023-12-20T07:35:03;30.88;;;10.55;;
44810;SDS011;30526;52.184;4.476;2023-12-20T07:37:30;19.92;;;8.93;;
44810;SDS011;30526;52.184;4.476;2023-12-20T07:39:56;29.83;;;9.23;;
44810;SDS011;30526;52.184;4.476;2023-12-20T07:42:22;24.50;;;9.32;;
44810;SDS011;30526;52.184;4.476;2023-12-20T07:44:48;33.47;;;11.18;;
44810;SDS011;30526;52.184;4.476;2023-12-20T07:47:14;23.30;;;9.75;;
44810;SDS011;30526;52.184;4.476;2023-12-20T07:49:46;27.90;;;9.52;;
44810;SDS011;30526;52.184;4.476;2023-12-20T07:52:12;20.85;;;9.50;;
44810;SDS011;30526;52.184;4.476;2023-12-20T07:54:38;33.45;;;10.48;;
44810;SDS011;30526;52.184;4.476;2023-12-20T07:57:04;27.55;;;9.80;;
44810;SDS011;30526;52.184;4.476;2023-12-20T07:59:30;21.25;;;9.32;;
44810;SDS011;30526;52.184;4.476;2023-12-20T08:01:56;28.95;;;9.55;;
44810;SDS011;30526;52.184;4.476;2023-12-20T08:04:22;20.63;;;9.63;;
44810;SDS011;30526;52.184;4.476;2023-12-20T08:06:48;25.67;;;10.25;;
44810;SDS011;30526;52.184;4.476;2023-12-20T08:09:14;24.35;;;9.68;;
44810;SDS011;30526;52.184;4.476;2023-12-20T08:11:44;30.90;;;10.77;;
44810;SDS011;30526;52.184;4.476;2023-12-20T08:14:10;23.95;;;9.75;;
44810;SDS011;30526;52.184;4.476;2023-12-20T08:16:36;22.35;;;10.00;;
44810;SDS011;30526;52.184;4.476;2023-12-20T08:19:02;27.63;;;10.00;;
44810;SDS011;30526;52.184;4.476;2023-12-20T08:21:28;36.25;;;10.55;;
44810;SDS011;30526;52.184;4.476;2023-12-20T08:23:54;26.45;;;10.18;;
44810;SDS011;30526;52.184;4.476;2023-12-20T08:26:21;26.85;;;10.10;;
44810;SDS011;30526;52.184;4.476;2023-12-20T08:28:48;25.90;;;9.45;;
44810;SDS011;30526;52.184;4.476;2023-12-20T08:31:14;18.93;;;9.97;;
44810;SDS011;30526;52.184;4.476;2023-12-20T08:33:41;16.05;;;8.90;;
44810;SDS011;30526;52.184;4.476;2023-12-20T08:36:07;26.05;;;9.50;;
44810;SDS011;30526;52.184;4.476;2023-12-20T08:38:33;22.58;;;9.60;;
44810;SDS011;30526;52.184;4.476;2023-12-20T08:40:59;25.17;;;9.63;;
44810;SDS011;30526;52.184;4.476;2023-12-20T08:43:26;10.38;;;8.45;;
44810;SDS011;30526;52.184;4.476;2023-12-20T08:45:52;28.08;;;10.10;;
44810;SDS011;30526;52.184;4.476;2023-12-20T08:48:18;33.55;;;10.45;;
44810;SDS011;30526;52.184;4.476;2023-12-20T08:50:44;24.48;;;9.52;;
44810;SDS011;30526;52.184;4.476;2023-12-20T08:53:10;25.58;;;10.13;;
44810;SDS011;30526;52.184;4.476;2023-12-20T08:55:37;16.27;;;9.18;;
44810;SDS011;30526;52.184;4.476;2023-12-20T08:58:03;27.58;;;9.75;;
44810;SDS011;30526;52.184;4.476;2023-12-20T09:00:31;25.95;;;9.88;;
44810;SDS011;30526;52.184;4.476;2023-12-20T09:02:57;24.35;;;10.18;;
44810;SDS011;30526;52.184;4.476;2023-12-20T09:05:24;18.98;;;9.18;;
44810;SDS011;30526;52.184;4.476;2023-12-20T09:07:50;25.15;;;9.43;;
44810;SDS011;30526;52.184;4.476;2023-12-20T09:10:16;19.70;;;9.98;;
44810;SDS011;30526;52.184;4.476;2023-12-20T09:12:47;26.23;;;9.77;;
44810;SDS011;30526;52.184;4.476;2023-12-20T09:15:13;27.55;;;9.55;;
44810;SDS011;30526;52.184;4.476;2023-12-20T09:17:39;27.65;;;9.98;;
44810;SDS011;30526;52.184;4.476;2023-12-20T09:20:06;24.90;;;10.25;;
44810;SDS011;30526;52.184;4.476;2023-12-20T09:22:33;16.42;;;8.57;;
44810;SDS011;30526;52.184;4.476;2023-12-20T09:24:59;24.38;;;9.90;;
44810;SDS011;30526;52.184;4.476;2023-12-20T09:27:27;20.60;;;9.60;;
44810;SDS011;30526;52.184;4.476;2023-12-20T09:29:53;24.42;;;9.98;;
44810;SDS011;30526;52.184;4.476;2023-12-20T09:32:19;23.90;;;10.43;;
44810;SDS011;30526;52.184;4.476;2023-12-20T09:34:48;30.75;;;10.70;;
44810;SDS011;30526;52.184;4.476;2023-12-20T09:37:14;33.55;;;10.80;;
44810;SDS011;30526;52.184;4.476;2023-12-20T09:39:40;21.38;;;10.18;;
44810;SDS011;30526;52.184;4.476;2023-12-20T09:42:06;25.27;;;10.13;;
44810;SDS011;30526;52.184;4.476;2023-12-20T09:44:33;18.40;;;8.85;;
44810;SDS011;30526;52.184;4.476;2023-12-20T09:47:02;26.83;;;10.23;;
44810;SDS011;30526;52.184;4.476;2023-12-20T09:49:28;19.98;;;9.35;;
44810;SDS011;30526;52.184;4.476;2023-12-20T09:51:55;15.90;;;9.10;;
44810;SDS011;30526;52.184;4.476;2023-12-20T09:54:22;22.38;;;10.70;;
44810;SDS011;30526;52.184;4.476;2023-12-20T09:56:48;20.95;;;10.95;;
44810;SDS011;30526;52.184;4.476;2023-12-20T09:59:14;23.65;;;10.15;;
44810;SDS011;30526;52.184;4.476;2023-12-20T10:01:41;17.45;;;10.50;;
44810;SDS011;30526;52.184;4.476;2023-12-20T10:04:11;16.00;;;9.13;;
44810;SDS011;30526;52.184;4.476;2023-12-20T10:06:41;25.10;;;9.55;;
44810;SDS011;30526;52.184;4.476;2023-12-20T10:09:08;20.20;;;9.52;;
44810;SDS011;30526;52.184;4.476;2023-12-20T10:11:37;22.27;;;8.70;;
44810;SDS011;30526;52.184;4.476;2023-12-20T10:14:04;23.80;;;9.45;;
44810;SDS011;30526;52.184;4.476;2023-12-20T10:16:31;16.08;;;9.05;;
44810;SDS011;30526;52.184;4.476;2023-12-20T10:18:57;17.95;;;8.90;;
44810;SDS011;30526;52.184;4.476;2023-12-20T10:21:23;20.98;;;9.40;;
44810;SDS011;30526;52.184;4.476;2023-12-20T10:23:51;21.17;;;10.00;;
44810;SDS011;30526;52.184;4.476;2023-12-20T10:26:27;20.37;;;9.90;;
44810;SDS011;30526;52.184;4.476;2023-12-20T10:28:54;16.27;;;9.38;;
44810;SDS011;30526;52.184;4.476;2023-12-20T10:31:33;22.20;;;9.43;;
44810;SDS011;30526;52.184;4.476;2023-12-20T10:34:00;25.63;;;9.88;;
44810;SDS011;30526;52.184;4.476;2023-12-20T10:36:27;23.95;;;9.80;;
44810;SDS011;30526;52.184;4.476;2023-12-20T10:38:54;14.75;;;9.43;;
44810;SDS011;30526;52.184;4.476;2023-12-20T10:41:28;28.52;;;9.73;;
44810;SDS011;30526;52.184;4.476;2023-12-20T10:44:01;21.63;;;9.63;;
44810;SDS011;30526;52.184;4.476;2023-12-20T10:46:28;30.50;;;10.57;;
44810;SDS011;30526;52.184;4.476;2023-12-20T10:48:55;16.23;;;8.93;;
44810;SDS011;30526;52.184;4.476;2023-12-20T10:51:21;17.57;;;9.47;;
44810;SDS011;30526;52.184;4.476;2023-12-20T10:53:48;15.93;;;9.70;;
44810;SDS011;30526;52.184;4.476;2023-12-20T10:56:15;15.57;;;10.15;;
44810;SDS011;30526;52.184;4.476;2023-12-20T10:58:43;21.80;;;10.02;;
44810;SDS011;30526;52.184;4.476;2023-12-20T11:01:09;19.88;;;9.82;;
44810;SDS011;30526;52.184;4.476;2023-12-20T11:06:05;18.92;;;10.50;;
44810;SDS011;30526;52.184;4.476;2023-12-20T11:08:41;20.33;;;9.55;;
44810;SDS011;30526;52.184;4.476;2023-12-20T11:11:10;22.30;;;9.70;;
44810;SDS011;30526;52.184;4.476;2023-12-20T11:13:48;28.48;;;9.85;;
44810;SDS011;30526;52.184;4.476;2023-12-20T11:16:19;27.45;;;10.05;;
44810;SDS011;30526;52.184;4.476;2023-12-20T11:18:45;20.55;;;9.77;;
44810;SDS011;30526;52.184;4.476;2023-12-20T11:21:11;27.90;;;10.52;;
44810;SDS011;30526;52.184;4.476;2023-12-20T11:23:39;16.02;;;9.65;;
44810;SDS011;30526;52.184;4.476;2023-12-20T11:26:08;17.92;;;9.50;;
44810;SDS011;30526;52.184;4.476;2023-12-20T11:28:34;15.73;;;10.07;;
44810;SDS011;30526;52.184;4.476;2023-12-20T11:31:00;20.27;;;10.13;;
44810;SDS011;30526;52.184;4.476;2023-12-20T11:33:29;18.40;;;9.55;;
44810;SDS011;30526;52.184;4.476;2023-12-20T11:35:56;22.25;;;9.82;;
44810;SDS011;30526;52.184;4.476;2023-12-20T11:38:23;20.33;;;10.20;;
44810;SDS011;30526;52.184;4.476;2023-12-20T11:40:49;20.80;;;10.07;;
44810;SDS011;30526;52.184;4.476;2023-12-20T11:46:06;18.55;;;10.40;;
44810;SDS011;30526;52.184;4.476;2023-12-20T11:48:34;20.20;;;10.43;;
44810;SDS011;30526;52.184;4.476;2023-12-20T11:51:00;23.88;;;10.05;;
44810;SDS011;30526;52.184;4.476;2023-12-20T11:53:28;18.05;;;9.55;;
44810;SDS011;30526;52.184;4.476;2023-12-20T11:58:22;24.83;;;10.23;;
44810;SDS011;30526;52.184;4.476;2023-12-20T12:00:49;17.52;;;10.48;;
44810;SDS011;30526;52.184;4.476;2023-12-20T12:03:16;23.42;;;10.27;;
44810;SDS011;30526;52.184;4.476;2023-12-20T12:05:43;19.10;;;9.43;;
44810;SDS011;30526;52.184;4.476;2023-12-20T12:08:09;18.23;;;10.27;;
44810;SDS011;30526;52.184;4.476;2023-12-20T12:10:35;18.98;;;9.85;;
44810;SDS011;30526;52.184;4.476;2023-12-20T12:13:01;21.40;;;9.23;;
44810;SDS011;30526;52.184;4.476;2023-12-20T12:15:27;24.97;;;9.80;;
44810;SDS011;30526;52.184;4.476;2023-12-20T12:17:56;19.33;;;10.70;;
44810;SDS011;30526;52.184;4.476;2023-12-20T12:20:24;24.83;;;10.07;;
44810;SDS011;30526;52.184;4.476;2023-12-20T12:23:00;24.05;;;9.50;;
44810;SDS011;30526;52.184;4.476;2023-12-20T12:25:26;25.77;;;9.70;;
44810;SDS011;30526;52.184;4.476;2023-12-20T12:27:52;25.33;;;9.52;;
44810;SDS011;30526;52.184;4.476;2023-12-20T12:30:18;28.02;;;10.05;;
44810;SDS011;30526;52.184;4.476;2023-12-20T12:32:44;25.67;;;10.95;;
44810;SDS011;30526;52.184;4.476;2023-12-20T12:35:10;18.80;;;9.80;;
44810;SDS011;30526;52.184;4.476;2023-12-20T12:37:38;19.98;;;10.27;;
44810;SDS011;30526;52.184;4.476;2023-12-20T12:40:11;25.73;;;10.57;;
44810;SDS011;30526;52.184;4.476;2023-12-20T12:42:38;17.33;;;10.00;;
44810;SDS011;30526;52.184;4.476;2023-12-20T12:45:04;16.02;;;9.25;;
44810;SDS011;30526;52.184;4.476;2023-12-20T12:47:30;13.68;;;9.68;;
44810;SDS011;30526;52.184;4.476;2023-12-20T12:49:56;15.95;;;10.32;;
44810;SDS011;30526;52.184;4.476;2023-12-20T12:52:22;23.17;;;9.85;;
44810;SDS011;30526;52.184;4.476;2023-12-20T12:54:48;26.17;;;9.98;;
44810;SDS011;30526;52.184;4.476;2023-12-20T12:57:15;27.67;;;11.25;;
44810;SDS011;30526;52.184;4.476;2023-12-20T13:02:09;23.08;;;10.02;;
44810;SDS011;30526;52.184;4.476;2023-12-20T13:04:35;16.17;;;9.23;;
44810;SDS011;30526;52.184;4.476;2023-12-20T13:07:01;23.85;;;10.57;;
44810;SDS011;30526;52.184;4.476;2023-12-20T13:09:27;29.52;;;9.82;;
44810;SDS011;30526;52.184;4.476;2023-12-20T13:11:53;21.33;;;9.85;;
44810;SDS011;30526;52.184;4.476;2023-12-20T13:14:19;23.50;;;10.10;;
44810;SDS011;30526;52.184;4.476;2023-12-20T13:16:45;23.75;;;9.23;;
44810;SDS011;30526;52.184;4.476;2023-12-20T13:19:11;17.17;;;9.63;;
44810;SDS011;30526;52.184;4.476;2023-12-20T13:21:37;20.02;;;9.00;;
44810;SDS011;30526;52.184;4.476;2023-12-20T13:24:03;22.17;;;9.10;;
44810;SDS011;30526;52.184;4.476;2023-12-20T13:26:29;21.40;;;9.90;;
44810;SDS011;30526;52.184;4.476;2023-12-20T13:28:55;18.08;;;9.98;;
44810;SDS011;30526;52.184;4.476;2023-12-20T13:31:21;22.05;;;10.10;;
44810;SDS011;30526;52.184;4.476;2023-12-20T13:33:47;20.38;;;9.70;;
44810;SDS011;30526;52.184;4.476;2023-12-20T13:36:13;20.13;;;10.02;;
44810;SDS011;30526;52.184;4.476;2023-12-20T13:38:40;24.30;;;9.80;;
44810;SDS011;30526;52.184;4.476;2023-12-20T13:41:06;25.83;;;9.88;;
44810;SDS011;30526;52.184;4.476;2023-12-20T13:43:32;17.40;;;9.50;;
44810;SDS011;30526;52.184;4.476;2023-12-20T13:45:58;22.23;;;9.70;;
44810;SDS011;30526;52.184;4.476;2023-12-20T13:48:24;21.15;;;10.40;;
44810;SDS011;30526;52.184;4.476;2023-12-20T13:50:50;27.40;;;9.27;;
44810;SDS011;30526;52.184;4.476;2023-12-20T13:53:16;26.58;;;9.63;;
44810;SDS011;30526;52.184;4.476;2023-12-20T13:55:44;16.35;;;9.50;;
44810;SDS011;30526;52.184;4.476;2023-12-20T13:58:10;23.23;;;10.10;;
44810;SDS011;30526;52.184;4.476;2023-12-20T14:00:36;20.73;;;9.48;;
44810;SDS011;30526;52.184;4.476;2023-12-20T14:03:06;16.15;;;9.40;;
44810;SDS011;30526;52.184;4.476;2023-12-20T14:05:32;20.83;;;9.85;;
44810;SDS011;30526;52.184;4.476;2023-12-20T14:07:58;23.85;;;9.90;;
44810;SDS011;30526;52.184;4.476;2023-12-20T14:10:25;14.00;;;8.52;;
44810;SDS011;30526;52.184;4.476;2023-12-20T14:12:52;18.40;;;9.13;;
44810;SDS011;30526;52.184;4.476;2023-12-20T14:15:18;32.30;;;9.70;;
44810;SDS011;30526;52.184;4.476;2023-12-20T14:17:44;19.63;;;9.65;;
44810;SDS011;30526;52.184;4.476;2023-12-20T14:20:10;17.85;;;9.35;;
44810;SDS011;30526;52.184;4.476;2023-12-20T14:22:38;24.15;;;9.18;;
44810;SDS011;30526;52.184;4.476;2023-12-20T14:25:10;22.05;;;8.77;;
44810;SDS011;30526;52.184;4.476;2023-12-20T14:30:02;14.23;;;8.40;;
44810;SDS011;30526;52.184;4.476;2023-12-20T14:32:28;22.80;;;8.48;;
44810;SDS011;30526;52.184;4.476;2023-12-20T14:34:54;24.83;;;9.25;;
44810;SDS011;30526;52.184;4.476;2023-12-20T14:37:20;20.70;;;8.18;;
44810;SDS011;30526;52.184;4.476;2023-12-20T14:39:46;21.63;;;9.32;;